createdAt,value
2022-08-27T00:00:20.951Z,100831.69
2022-08-27T00:02:49.010Z,100817.25
2022-08-27T00:05:17.409Z,100815.91
2022-08-27T00:07:44.358Z,100813.69
2022-08-27T00:10:15.228Z,100808.38
2022-08-27T00:12:42.017Z,100808.94
2022-08-27T00:15:10.271Z,100810.75
2022-08-27T00:17:38.897Z,100817.09
2022-08-27T00:20:07.140Z,100808.22
2022-08-27T00:22:34.034Z,100812.53
2022-08-27T00:25:01.092Z,100813.53
2022-08-27T00:27:27.633Z,100793.53
2022-08-27T00:29:54.120Z,100811.28
2022-08-27T00:32:20.604Z,100812.78
2022-08-27T00:34:47.158Z,100805.25
2022-08-27T00:37:13.996Z,100807.78
2022-08-27T00:39:40.689Z,100805.19
2022-08-27T00:42:08.420Z,100808.72
2022-08-27T00:44:35.095Z,100797.25
2022-08-27T00:47:05.927Z,100797.53
2022-08-27T00:50:02.306Z,100800.03
2022-08-27T00:52:35.193Z,100805.38
2022-08-27T00:55:10.182Z,100813.25
2022-08-27T00:57:39.095Z,100813.09
2022-08-27T01:00:11.555Z,100803.94
2022-08-27T01:02:38.251Z,100799.28
2022-08-27T01:05:15.720Z,100804.63
2022-08-27T01:07:46.398Z,100802.19
2022-08-27T01:10:16.764Z,100806.63
2022-08-27T01:12:43.950Z,100805.31
2022-08-27T01:15:19.453Z,100806.38
2022-08-27T01:17:47.982Z,100816.75
2022-08-27T01:20:24.775Z,100811.81
2022-08-27T01:23:14.558Z,100820.97
2022-08-27T01:25:43.369Z,100796.78
2022-08-27T01:28:11.439Z,100811.75
2022-08-27T01:30:40.186Z,100818.47
2022-08-27T01:33:16.588Z,100819.84
2022-08-27T01:35:46.497Z,100810.63
2022-08-27T01:38:30.167Z,100815.66
2022-08-27T01:40:59.212Z,100814.69
2022-08-27T01:43:28.005Z,100814.63
2022-08-27T01:45:54.539Z,100819.03
2022-08-27T01:48:22.382Z,100826.94
2022-08-27T01:50:49.703Z,100830.13
2022-08-27T01:53:20.461Z,100825.66
2022-08-27T01:55:48.547Z,100823.00
2022-08-27T01:58:15.621Z,100830.25
2022-08-27T02:00:44.798Z,100824.75
2022-08-27T02:03:12.142Z,100825.19
2022-08-27T02:05:44.916Z,100827.66
2022-08-27T02:08:12.922Z,100830.47
2022-08-27T02:10:40.649Z,100818.38
2022-08-27T02:13:08.200Z,100825.66
2022-08-27T02:15:36.118Z,100819.22
2022-08-27T02:18:05.692Z,100819.66
2022-08-27T02:20:32.353Z,100813.69
2022-08-27T02:22:59.383Z,100805.06
2022-08-27T02:25:26.993Z,100818.13
2022-08-27T02:27:53.497Z,100822.06
2022-08-27T02:30:23.893Z,100818.00
2022-08-27T02:32:53.068Z,100827.03
2022-08-27T02:35:22.688Z,100826.19
2022-08-27T02:37:50.003Z,100824.19
2022-08-27T02:40:19.659Z,100828.28
2022-08-27T02:42:47.004Z,100819.84
2022-08-27T02:45:15.779Z,100821.38
2022-08-27T02:47:42.317Z,100824.81
2022-08-27T02:50:09.678Z,100826.66
2022-08-27T02:52:36.658Z,100823.97
2022-08-27T02:55:05.373Z,100826.38
2022-08-27T02:57:34.292Z,100823.19
2022-08-27T03:00:07.590Z,100831.13
2022-08-27T03:02:34.454Z,100816.63
2022-08-27T03:05:01.006Z,100832.63
2022-08-27T03:07:27.584Z,100823.44
2022-08-27T03:09:54.021Z,100827.97
2022-08-27T03:12:22.687Z,100820.25
2022-08-27T03:14:51.330Z,100817.69
2022-08-27T03:17:36.177Z,100826.06
2022-08-27T03:20:06.702Z,100825.28
2022-08-27T03:22:33.190Z,100817.94
2022-08-27T03:25:02.265Z,100828.03
2022-08-27T03:27:28.777Z,100820.09
2022-08-27T03:29:55.243Z,100836.06
2022-08-27T03:32:21.798Z,100835.06
2022-08-27T03:34:48.244Z,100840.75
2022-08-27T03:37:14.723Z,100841.53
2022-08-27T03:39:41.208Z,100836.28
2022-08-27T03:42:07.773Z,100839.41
2022-08-27T03:44:34.235Z,100835.69
2022-08-27T03:47:00.709Z,100844.31
2022-08-27T03:49:27.193Z,100846.66
2022-08-27T03:51:54.099Z,100846.97
2022-08-27T03:54:21.110Z,100835.81
2022-08-27T03:56:47.871Z,100845.63
2022-08-27T03:59:15.731Z,100842.53
2022-08-27T04:01:43.109Z,100841.69
2022-08-27T04:04:09.755Z,100847.44
2022-08-27T04:06:36.767Z,100849.00
2022-08-27T04:09:04.087Z,100841.47
2022-08-27T04:11:31.019Z,100840.69
2022-08-27T04:13:57.496Z,100840.53
2022-08-27T04:16:25.631Z,100848.06
2022-08-27T04:18:52.243Z,100839.94
2022-08-27T04:21:18.730Z,100853.38
2022-08-27T04:23:45.185Z,100851.91
2022-08-27T04:26:12.065Z,100854.13
2022-08-27T04:28:39.059Z,100856.75
2022-08-27T04:31:07.390Z,100850.97
2022-08-27T04:33:43.782Z,100854.28
2022-08-27T04:36:17.700Z,100848.81
2022-08-27T04:38:44.194Z,100858.13
2022-08-27T04:41:19.843Z,100853.69
2022-08-27T04:43:48.144Z,100857.44
2022-08-27T04:46:18.899Z,100856.63
2022-08-27T04:48:45.403Z,100857.44
2022-08-27T04:51:12.507Z,100864.75
2022-08-27T04:53:41.234Z,100862.63
2022-08-27T04:56:08.395Z,100872.66
2022-08-27T04:58:41.970Z,100872.69
2022-08-27T05:01:08.728Z,100873.84
2022-08-27T05:03:35.285Z,100874.66
2022-08-27T05:06:06.440Z,100880.72
2022-08-27T05:08:34.005Z,100878.00
2022-08-27T05:11:01.856Z,100873.81
2022-08-27T05:13:29.182Z,100871.53
2022-08-27T05:16:08.297Z,100867.88
2022-08-27T05:18:41.724Z,100868.47
2022-08-27T05:21:31.012Z,100872.59
2022-08-27T05:23:59.864Z,100876.94
2022-08-27T05:26:28.096Z,100872.09
2022-08-27T05:28:55.307Z,100874.47
2022-08-27T05:31:22.632Z,100871.91
2022-08-27T05:33:49.457Z,100869.97
2022-08-27T05:36:22.451Z,100866.69
2022-08-27T05:38:50.211Z,100874.69
2022-08-27T05:41:19.691Z,100877.16
2022-08-27T05:43:50.175Z,100875.47
2022-08-27T05:46:20.332Z,100868.13
2022-08-27T05:48:47.682Z,100866.88
2022-08-27T05:51:16.284Z,100868.25
2022-08-27T05:53:56.577Z,100865.13
2022-08-27T05:56:25.098Z,100869.66
2022-08-27T05:59:10.134Z,100869.63
2022-08-27T06:01:41.618Z,100869.56
2022-08-27T06:04:09.862Z,100861.66
2022-08-27T06:06:39.010Z,100865.44
2022-08-27T06:09:06.482Z,100871.13
2022-08-27T06:11:33.122Z,100866.34
2022-08-27T06:13:59.668Z,100866.59
2022-08-27T06:16:26.321Z,100875.22
2022-08-27T06:18:53.116Z,100879.38
2022-08-27T06:21:24.290Z,100873.44
2022-08-27T06:23:53.196Z,100875.06
2022-08-27T06:26:21.819Z,100879.69
2022-08-27T06:28:50.507Z,100877.03
2022-08-27T06:31:21.220Z,100872.91
2022-08-27T06:33:47.766Z,100880.63
2022-08-27T06:36:17.516Z,100890.41
2022-08-27T06:38:44.361Z,100884.56
2022-08-27T06:41:16.406Z,100899.28
2022-08-27T06:43:50.166Z,100903.53
2022-08-27T06:46:18.627Z,100907.16
2022-08-27T06:48:45.927Z,100901.78
2022-08-27T06:51:19.218Z,100913.13
2022-08-27T06:53:47.337Z,100912.22
2022-08-27T06:56:17.688Z,100906.47
2022-08-27T06:58:44.727Z,100909.81
2022-08-27T07:01:16.716Z,100915.25
2022-08-27T07:03:43.837Z,100911.25
2022-08-27T07:06:12.398Z,100910.91
2022-08-27T07:08:39.594Z,100920.22
2022-08-27T07:11:08.452Z,100920.22
2022-08-27T07:13:35.267Z,100915.22
2022-08-27T07:16:15.442Z,100921.19
2022-08-27T07:18:42.320Z,100919.59
2022-08-27T07:21:09.653Z,100912.56
2022-08-27T07:23:37.768Z,100922.50
2022-08-27T07:26:12.136Z,100912.81
2022-08-27T07:28:40.379Z,100923.41
2022-08-27T07:31:11.644Z,100936.50
2022-08-27T07:33:46.246Z,100936.50
2022-08-27T07:36:21.674Z,100927.72
2022-08-27T07:39:01.041Z,100926.81
2022-08-27T07:41:31.263Z,100945.84
2022-08-27T07:44:18.484Z,100935.44
2022-08-27T07:46:47.942Z,100934.09
2022-08-27T07:49:16.425Z,100938.72
2022-08-27T07:51:42.961Z,100941.22
2022-08-27T07:54:09.498Z,100942.28
2022-08-27T07:56:36.078Z,100936.41
2022-08-27T07:59:02.599Z,100946.66
2022-08-27T08:01:29.258Z,100949.97
2022-08-27T08:03:57.033Z,100950.09
2022-08-27T08:06:23.524Z,100942.59
2022-08-27T08:08:50.235Z,100947.53
2022-08-27T08:11:18.570Z,100945.94
2022-08-27T08:13:46.475Z,100957.13
2022-08-27T08:16:14.127Z,100950.19
2022-08-27T08:18:41.156Z,100956.13
2022-08-27T08:21:11.551Z,100954.31
2022-08-27T08:23:38.432Z,100965.97
2022-08-27T08:26:06.851Z,100960.09
2022-08-27T08:28:33.362Z,100964.34
2022-08-27T08:31:00.398Z,100966.22
2022-08-27T08:33:28.065Z,100961.47
2022-08-27T08:35:54.937Z,100969.31
2022-08-27T08:38:22.070Z,100964.72
2022-08-27T08:40:54.446Z,100963.94
2022-08-27T08:43:30.238Z,100963.84
2022-08-27T08:46:03.866Z,100965.59
2022-08-27T08:48:31.347Z,100969.75
2022-08-27T08:51:05.417Z,100969.19
2022-08-27T08:54:04.131Z,100970.75
2022-08-27T08:56:46.110Z,100972.22
2022-08-27T08:59:25.148Z,100957.50
2022-08-27T09:01:52.224Z,100957.47
2022-08-27T09:04:18.852Z,100955.16
2022-08-27T09:06:58.874Z,100961.03
2022-08-27T09:09:45.831Z,100973.00
2022-08-27T09:12:22.321Z,100975.63
2022-08-27T09:15:09.296Z,100973.31
2022-08-27T09:17:40.320Z,100966.06
2022-08-27T09:20:08.513Z,100977.50
2022-08-27T09:22:58.884Z,100972.69
2022-08-27T09:25:31.891Z,100974.28
2022-08-27T09:28:01.487Z,100963.81
2022-08-27T09:30:32.040Z,100963.44
2022-08-27T09:33:04.696Z,100945.28
2022-08-27T09:35:45.906Z,100973.78
2022-08-27T09:38:32.963Z,100971.75
2022-08-27T09:41:05.768Z,100968.41
2022-08-27T09:43:32.625Z,100954.44
2022-08-27T09:46:07.532Z,100967.41
2022-08-27T09:48:37.360Z,100961.09
2022-08-27T09:51:16.680Z,100965.13
2022-08-27T09:53:59.852Z,100972.91
2022-08-27T09:56:31.492Z,100978.09
2022-08-27T09:59:06.488Z,100972.38
2022-08-27T10:01:36.699Z,100971.38
2022-08-27T10:04:14.846Z,100982.81
2022-08-27T10:06:47.249Z,100976.38
2022-08-27T10:09:20.714Z,100985.09
2022-08-27T10:11:52.722Z,100941.34
2022-08-27T10:14:29.451Z,100977.72
2022-08-27T10:16:59.137Z,100976.28
2022-08-27T10:19:36.508Z,100982.28
2022-08-27T10:22:19.106Z,100975.03
2022-08-27T10:25:01.423Z,100974.53
2022-08-27T10:27:46.839Z,100979.41
2022-08-27T10:30:25.910Z,100976.63
2022-08-27T10:33:11.346Z,100984.00
2022-08-27T10:35:53.724Z,100977.94
2022-08-27T10:39:09.899Z,100976.81
2022-08-27T10:41:51.012Z,100977.25
2022-08-27T10:44:43.183Z,100992.50
2022-08-27T10:47:27.791Z,100964.25
2022-08-27T10:50:08.314Z,100980.09
2022-08-27T10:53:00.477Z,100976.69
2022-08-27T10:55:27.501Z,100987.25
2022-08-27T10:58:13.333Z,100979.59
2022-08-27T11:00:49.275Z,100987.59
2022-08-27T11:03:33.455Z,100990.75
2022-08-27T11:06:21.589Z,100986.81
2022-08-27T11:08:54.894Z,100973.66
2022-08-27T11:12:12.364Z,100976.63
2022-08-27T11:14:43.235Z,100975.22
2022-08-27T11:17:32.360Z,100976.28
2022-08-27T11:20:18.782Z,100985.16
2022-08-27T11:22:54.820Z,100970.56
2022-08-27T11:25:43.757Z,100975.03
2022-08-27T11:28:11.769Z,100976.97
2022-08-27T11:30:46.045Z,100973.97
2022-08-27T11:33:18.746Z,100975.66
2022-08-27T11:36:38.555Z,100974.88
2022-08-27T11:39:42.679Z,100978.81
2022-08-27T11:42:21.235Z,100971.56
2022-08-27T11:44:52.559Z,100965.13
2022-08-27T11:47:25.443Z,100967.75
2022-08-27T11:49:56.270Z,100969.84
2022-08-27T11:52:42.650Z,100974.00
2022-08-27T11:55:21.091Z,100969.94
2022-08-27T11:57:50.327Z,100980.63
2022-08-27T12:00:38.771Z,100949.00
2022-08-27T12:03:20.083Z,100968.91
2022-08-27T12:05:48.798Z,100949.19
2022-08-27T12:08:23.715Z,100968.72
2022-08-27T12:11:08.742Z,100981.34
2022-08-27T12:13:50.615Z,100974.38
2022-08-27T12:16:38.977Z,100979.59
2022-08-27T12:19:41.283Z,100949.38
2022-08-27T12:22:23.307Z,100967.72
2022-08-27T12:24:59.111Z,100980.16
2022-08-27T12:27:34.792Z,100952.50
2022-08-27T12:30:30.151Z,100965.56
2022-08-27T12:32:59.574Z,100969.22
2022-08-27T12:35:25.913Z,100983.25
2022-08-27T12:38:04.906Z,100972.50
2022-08-27T12:40:39.145Z,100972.81
2022-08-27T12:43:05.628Z,100977.88
2022-08-27T12:45:32.191Z,100974.34
2022-08-27T12:47:58.841Z,100966.84
2022-08-27T12:50:30.053Z,100967.69
2022-08-27T12:53:05.495Z,100971.25
2022-08-27T12:55:57.886Z,100981.53
2022-08-27T12:58:46.291Z,100971.28
2022-08-27T13:01:43.280Z,100974.31
2022-08-27T13:04:20.641Z,100975.94
2022-08-27T13:06:47.232Z,100954.31
2022-08-27T13:09:13.747Z,100964.53
2022-08-27T13:11:49.088Z,100973.72
2022-08-27T13:14:20.940Z,100963.22
2022-08-27T13:17:18.756Z,100972.06
2022-08-27T13:19:51.165Z,100967.88
2022-08-27T13:22:50.877Z,100958.56
2022-08-27T13:25:30.751Z,100963.44
2022-08-27T13:28:10.131Z,100966.47
2022-08-27T13:30:39.185Z,100959.00
2022-08-27T13:33:08.728Z,100963.88
2022-08-27T13:35:35.645Z,100956.41
2022-08-27T13:38:03.554Z,100962.91
2022-08-27T13:40:38.349Z,100967.00
2022-08-27T13:43:10.810Z,100971.78
2022-08-27T13:45:42.533Z,100960.81
2022-08-27T13:48:14.187Z,100964.63
2022-08-27T13:50:49.382Z,100958.78
2022-08-27T13:53:40.489Z,100957.94
2022-08-27T13:56:07.555Z,100963.00
2022-08-27T13:58:35.787Z,100955.16
2022-08-27T14:01:25.791Z,100944.44
2022-08-27T14:04:02.141Z,100942.19
2022-08-27T14:06:35.690Z,100934.34
2022-08-27T14:09:32.052Z,100937.91
2022-08-27T14:12:04.584Z,100942.16
2022-08-27T14:14:38.717Z,100944.44
2022-08-27T14:17:08.723Z,100941.09
2022-08-27T14:19:36.914Z,100938.63
2022-08-27T14:22:04.369Z,100948.69
2022-08-27T14:24:30.852Z,100938.97
2022-08-27T14:27:05.973Z,100939.34
2022-08-27T14:29:32.536Z,100938.09
2022-08-27T14:31:59.176Z,100937.44
2022-08-27T14:34:25.624Z,100949.22
2022-08-27T14:36:54.855Z,100944.69
2022-08-27T14:39:21.975Z,100953.44
2022-08-27T14:41:52.719Z,100926.19
2022-08-27T14:44:19.231Z,100953.44
2022-08-27T14:46:46.040Z,100937.97
2022-08-27T14:49:21.183Z,100944.28
2022-08-27T14:51:49.033Z,100941.38
2022-08-27T14:54:15.539Z,100950.31
2022-08-27T14:56:42.127Z,100947.66
2022-08-27T14:59:08.728Z,100946.69
2022-08-27T15:04:04.797Z,100951.38
2022-08-27T15:06:31.315Z,100946.53
2022-08-27T15:08:57.960Z,100959.25
2022-08-27T15:11:29.699Z,100955.66
2022-08-27T15:13:58.584Z,100941.38
2022-08-27T15:16:33.192Z,100955.69
2022-08-27T15:19:00.912Z,100957.09
2022-08-27T15:21:30.320Z,100953.00
2022-08-27T15:24:22.376Z,100960.19
2022-08-27T15:26:49.850Z,100943.19
2022-08-27T15:29:16.797Z,100960.03
2022-08-27T15:31:44.168Z,100947.13
2022-08-27T15:34:11.790Z,100955.06
2022-08-27T15:36:38.888Z,100958.00
2022-08-27T15:39:05.541Z,100952.91
2022-08-27T15:41:34.149Z,100953.72
2022-08-27T15:44:03.831Z,100956.41
2022-08-27T15:46:30.492Z,100954.97
2022-08-27T15:48:57.119Z,100956.41
2022-08-27T15:51:29.908Z,100960.00
2022-08-27T15:53:57.053Z,100951.31
2022-08-27T15:56:23.969Z,100955.53
2022-08-27T15:58:50.719Z,100958.06
2022-08-27T16:01:31.383Z,100957.50
2022-08-27T16:03:59.557Z,100949.81
2022-08-27T16:06:27.531Z,100951.66
2022-08-27T16:08:54.110Z,100942.25
2022-08-27T16:11:22.729Z,100952.84
2022-08-27T16:13:50.524Z,100947.34
2022-08-27T16:16:27.741Z,100952.00
2022-08-27T16:18:54.399Z,100952.84
2022-08-27T16:21:20.973Z,100949.56
2022-08-27T16:23:47.569Z,100954.16
2022-08-27T16:26:14.374Z,100958.81
2022-08-27T16:28:40.851Z,100949.53
2022-08-27T16:31:11.373Z,100950.88
2022-08-27T16:33:40.909Z,100959.59
2022-08-27T16:36:07.756Z,100951.31
2022-08-27T16:38:34.562Z,100961.53
2022-08-27T16:41:01.074Z,100959.44
2022-08-27T16:43:28.475Z,100951.69
2022-08-27T16:45:57.901Z,100950.41
2022-08-27T16:48:43.654Z,100957.28
2022-08-27T16:51:17.697Z,100963.94
2022-08-27T16:53:44.983Z,100959.09
2022-08-27T16:56:11.517Z,100946.56
2022-08-27T16:58:40.520Z,100945.53
2022-08-27T17:01:10.466Z,100951.22
2022-08-27T17:04:07.276Z,100949.81
2022-08-27T17:06:30.947Z,100952.09
2022-08-27T17:08:59.178Z,100952.47
2022-08-27T17:11:28.332Z,100949.56
2022-08-27T17:13:58.721Z,100964.19
2022-08-27T17:16:29.588Z,100961.19
2022-08-27T17:18:58.301Z,100962.19
2022-08-27T17:21:29.688Z,100966.72
2022-08-27T17:23:59.362Z,100955.72
2022-08-27T17:26:26.081Z,100962.03
2022-08-27T17:28:52.993Z,100966.34
2022-08-27T17:31:28.407Z,100960.09
2022-08-27T17:33:56.604Z,100960.13
2022-08-27T17:36:25.164Z,100961.25
2022-08-27T17:38:53.864Z,100949.41
2022-08-27T17:41:34.282Z,100967.38
2022-08-27T17:44:04.276Z,100969.41
2022-08-27T17:46:30.985Z,100959.50
2022-08-27T17:48:57.953Z,100961.91
2022-08-27T17:51:24.521Z,100968.00
2022-08-27T17:53:58.397Z,100965.94
2022-08-27T17:56:26.897Z,100968.03
2022-08-27T17:58:54.095Z,100969.22
2022-08-27T18:01:28.215Z,100978.06
2022-08-27T18:03:56.160Z,100972.13
2022-08-27T18:06:23.522Z,100973.81
2022-08-27T18:08:50.106Z,100979.16
2022-08-27T18:11:17.295Z,100967.88
2022-08-27T18:13:48.085Z,100983.28
2022-08-27T18:16:14.576Z,100982.22
2022-08-27T18:18:41.865Z,100978.00
2022-08-27T18:21:08.859Z,100977.31
2022-08-27T18:23:37.004Z,100981.47
2022-08-27T18:26:06.455Z,100983.13
2022-08-27T18:28:34.108Z,100992.28
2022-08-27T18:31:03.691Z,100987.03
2022-08-27T18:33:33.522Z,100989.66
2022-08-27T18:36:00.047Z,100997.59
2022-08-27T18:38:26.864Z,100993.22
2022-08-27T18:40:54.305Z,101002.88
2022-08-27T18:43:26.726Z,100992.53
2022-08-27T18:45:53.357Z,100994.66
2022-08-27T18:48:22.371Z,101001.59
2022-08-27T18:50:54.817Z,101003.19
2022-08-27T18:53:21.450Z,101004.28
2022-08-27T18:55:49.451Z,101003.25
2022-08-27T18:58:16.731Z,101011.22
2022-08-27T19:00:47.084Z,101009.25
2022-08-27T19:03:20.567Z,101003.13
2022-08-27T19:05:47.224Z,101012.22
2022-08-27T19:08:13.913Z,101006.91
2022-08-27T19:10:40.559Z,101015.81
2022-08-27T19:13:07.115Z,101005.34
2022-08-27T19:15:33.824Z,101015.00
2022-08-27T19:18:02.895Z,101010.56
2022-08-27T19:20:32.527Z,101010.16
2022-08-27T19:22:59.646Z,101007.38
2022-08-27T19:25:27.967Z,101020.09
2022-08-27T19:27:55.018Z,101003.69
2022-08-27T19:30:22.024Z,101013.31
2022-08-27T19:32:48.917Z,101028.50
2022-08-27T19:35:21.702Z,101020.94
2022-08-27T19:37:53.258Z,101018.84
2022-08-27T19:40:21.820Z,101021.59
2022-08-27T19:42:49.098Z,101024.50
2022-08-27T19:45:15.582Z,101038.59
2022-08-27T19:47:50.601Z,101029.84
2022-08-27T19:50:18.063Z,101051.91
2022-08-27T19:52:44.928Z,101046.44
2022-08-27T19:55:14.357Z,101036.03
2022-08-27T19:57:42.562Z,101040.84
2022-08-27T20:00:12.157Z,101049.81
2022-08-27T20:02:39.026Z,101039.31
2022-08-27T20:05:17.863Z,101042.53
2022-08-27T20:07:44.836Z,101041.00
2022-08-27T20:10:11.594Z,101049.22
2022-08-27T20:12:38.414Z,101050.31
2022-08-27T20:15:06.425Z,101049.16
2022-08-27T20:17:35.082Z,101054.97
2022-08-27T20:20:01.811Z,101040.75
2022-08-27T20:22:28.410Z,101048.50
2022-08-27T20:24:54.953Z,101047.75
2022-08-27T20:27:21.707Z,101054.81
2022-08-27T20:29:48.527Z,101071.50
2022-08-27T20:32:15.359Z,101065.22
2022-08-27T20:34:42.070Z,101066.50
2022-08-27T20:37:09.045Z,101068.97
2022-08-27T20:39:36.071Z,101064.69
2022-08-27T20:42:02.827Z,101074.44
2022-08-27T20:44:29.354Z,101078.13
2022-08-27T20:47:01.290Z,101069.34
2022-08-27T20:49:29.132Z,101073.41
2022-08-27T20:52:03.186Z,101082.94
2022-08-27T20:54:31.932Z,101075.97
2022-08-27T20:56:58.566Z,101079.16
2022-08-27T20:59:43.642Z,101088.72
2022-08-27T21:02:12.498Z,101087.66
2022-08-27T21:04:46.564Z,101088.75
2022-08-27T21:07:14.983Z,101091.38
2022-08-27T21:09:55.440Z,101088.47
2022-08-27T21:12:23.617Z,101090.41
2022-08-27T21:14:55.812Z,101085.09
2022-08-27T21:17:27.140Z,101089.22
2022-08-27T21:19:53.992Z,101095.50
2022-08-27T21:22:22.029Z,101100.66
2022-08-27T21:24:48.493Z,101105.38
2022-08-27T21:27:17.305Z,101106.53
2022-08-27T21:29:44.869Z,101100.50
2022-08-27T21:32:12.147Z,101115.59
2022-08-27T21:34:38.700Z,101115.13
2022-08-27T21:37:05.372Z,101101.94
2022-08-27T21:39:34.083Z,101115.75
2022-08-27T21:42:01.575Z,101109.72
2022-08-27T21:44:30.085Z,101118.34
2022-08-27T21:46:57.832Z,101113.81
2022-08-27T21:49:24.440Z,101112.22
2022-08-27T21:51:51.003Z,101118.56
2022-08-27T21:54:17.868Z,101112.56
2022-08-27T21:56:44.755Z,101122.16
2022-08-27T21:59:11.360Z,101118.78
2022-08-27T22:01:38.147Z,101124.78
2022-08-27T22:04:04.858Z,101123.91
2022-08-27T22:06:31.418Z,101129.94
2022-08-27T22:08:57.909Z,101125.06
2022-08-27T22:11:25.603Z,101129.47
2022-08-27T22:13:53.116Z,101135.69
2022-08-27T22:16:20.207Z,101130.06
2022-08-27T22:18:47.403Z,101133.97
2022-08-27T22:21:21.103Z,101132.16
2022-08-27T22:23:47.613Z,101144.41
2022-08-27T22:26:14.176Z,101143.22
2022-08-27T22:28:40.627Z,101136.91
2022-08-27T22:31:07.723Z,101127.97
2022-08-27T22:33:34.306Z,101135.72
2022-08-27T22:36:00.868Z,101128.84
2022-08-27T22:38:27.429Z,101131.06
2022-08-27T22:40:53.949Z,101143.13
2022-08-27T22:43:20.545Z,101134.75
2022-08-27T22:45:47.104Z,101134.19
2022-08-27T22:48:13.857Z,101123.94
2022-08-27T22:50:40.668Z,101133.38
2022-08-27T22:53:07.980Z,101141.22
2022-08-27T22:55:35.151Z,101144.53
2022-08-27T22:58:02.149Z,101142.09
2022-08-27T23:00:32.212Z,101136.88
2022-08-27T23:02:59.495Z,101149.13
2022-08-27T23:05:26.949Z,101154.16
2022-08-27T23:07:54.762Z,101154.38
2022-08-27T23:10:24.199Z,101151.69
2022-08-27T23:12:53.682Z,101141.44
2022-08-27T23:15:22.307Z,101148.16
2022-08-27T23:17:48.971Z,101141.91
2022-08-27T23:20:16.666Z,101132.31
2022-08-27T23:22:43.319Z,101139.38
2022-08-27T23:25:30.400Z,101135.06
2022-08-27T23:27:59.652Z,101130.84
2022-08-27T23:30:26.913Z,101138.53
2022-08-27T23:32:54.798Z,101128.94
2022-08-27T23:35:23.042Z,101130.56
2022-08-27T23:37:51.278Z,101127.94
2022-08-27T23:40:19.085Z,101125.38
2022-08-27T23:42:46.499Z,101127.09
2022-08-27T23:45:16.682Z,101134.22
2022-08-27T23:47:43.579Z,101123.94
2022-08-27T23:50:11.489Z,101124.88
2022-08-27T23:52:39.156Z,101125.66
2022-08-27T23:55:07.718Z,101132.59
2022-08-27T23:57:34.206Z,101122.06
